sensor_id;sensor_type;location;lat;lon;timestamp;P1;durP1;ratioP1;P2;durP2;ratioP2
2522;SDS011;1272;53.332;9.860;2023-07-31T00:00:32;2.53;;;1.83;;
2522;SDS011;1272;53.332;9.860;2023-07-31T00:02:58;1.57;;;1.40;;
2522;SDS011;1272;53.332;9.860;2023-07-31T00:05:24;1.43;;;1.30;;
2522;SDS011;1272;53.332;9.860;2023-07-31T00:07:50;4.30;;;1.97;;
2522;SDS011;1272;53.332;9.860;2023-07-31T00:10:15;2.93;;;1.40;;
2522;SDS011;1272;53.332;9.860;2023-07-31T00:12:42;1.67;;;1.60;;
2522;SDS011;1272;53.332;9.860;2023-07-31T00:15:09;2.53;;;1.50;;
2522;SDS011;1272;53.332;9.860;2023-07-31T00:17:35;1.43;;;1.33;;
2522;SDS011;1272;53.332;9.860;2023-07-31T00:20:01;1.70;;;1.60;;
2522;SDS011;1272;53.332;9.860;2023-07-31T00:22:27;2.50;;;1.53;;
2522;SDS011;1272;53.332;9.860;2023-07-31T00:24:53;4.17;;;1.70;;
2522;SDS011;1272;53.332;9.860;2023-07-31T00:27:18;2.20;;;2.10;;
2522;SDS011;1272;53.332;9.860;2023-07-31T00:29:44;4.60;;;1.60;;
2522;SDS011;1272;53.332;9.860;2023-07-31T00:32:09;2.10;;;1.57;;
2522;SDS011;1272;53.332;9.860;2023-07-31T00:34:35;1.67;;;1.57;;
2522;SDS011;1272;53.332;9.860;2023-07-31T00:37:01;8.00;;;1.80;;
2522;SDS011;1272;53.332;9.860;2023-07-31T00:39:26;2.60;;;2.03;;
2522;SDS011;1272;53.332;9.860;2023-07-31T00:41:52;2.47;;;1.40;;
2522;SDS011;1272;53.332;9.860;2023-07-31T00:44:18;1.63;;;1.53;;
2522;SDS011;1272;53.332;9.860;2023-07-31T00:46:44;1.83;;;1.47;;
2522;SDS011;1272;53.332;9.860;2023-07-31T00:49:10;2.80;;;1.63;;
2522;SDS011;1272;53.332;9.860;2023-07-31T00:51:36;5.00;;;1.83;;
2522;SDS011;1272;53.332;9.860;2023-07-31T00:54:02;1.67;;;1.57;;
2522;SDS011;1272;53.332;9.860;2023-07-31T00:56:28;2.03;;;1.63;;
2522;SDS011;1272;53.332;9.860;2023-07-31T00:58:55;2.60;;;2.20;;
2522;SDS011;1272;53.332;9.860;2023-07-31T01:01:20;1.87;;;1.70;;
2522;SDS011;1272;53.332;9.860;2023-07-31T01:03:47;1.57;;;1.47;;
2522;SDS011;1272;53.332;9.860;2023-07-31T01:06:26;1.70;;;1.60;;
2522;SDS011;1272;53.332;9.860;2023-07-31T01:11:53;2.30;;;1.50;;
2522;SDS011;1272;53.332;9.860;2023-07-31T01:14:22;2.10;;;2.00;;
2522;SDS011;1272;53.332;9.860;2023-07-31T01:16:48;2.07;;;1.77;;
2522;SDS011;1272;53.332;9.860;2023-07-31T01:19:14;3.50;;;2.10;;
2522;SDS011;1272;53.332;9.860;2023-07-31T01:24:55;3.93;;;2.57;;
2522;SDS011;1272;53.332;9.860;2023-07-31T01:27:34;1.83;;;1.73;;
2522;SDS011;1272;53.332;9.860;2023-07-31T01:30:07;2.00;;;1.90;;
2522;SDS011;1272;53.332;9.860;2023-07-31T01:32:40;2.57;;;2.37;;
2522;SDS011;1272;53.332;9.860;2023-07-31T01:35:07;2.50;;;2.13;;
2522;SDS011;1272;53.332;9.860;2023-07-31T01:37:33;2.00;;;1.80;;
2522;SDS011;1272;53.332;9.860;2023-07-31T01:39:59;2.53;;;1.60;;
2522;SDS011;1272;53.332;9.860;2023-07-31T01:42:25;8.23;;;1.53;;
2522;SDS011;1272;53.332;9.860;2023-07-31T01:44:51;2.77;;;2.07;;
2522;SDS011;1272;53.332;9.860;2023-07-31T01:47:16;2.07;;;1.87;;
2522;SDS011;1272;53.332;9.860;2023-07-31T01:49:42;1.80;;;1.60;;
2522;SDS011;1272;53.332;9.860;2023-07-31T01:52:08;2.10;;;1.93;;
2522;SDS011;1272;53.332;9.860;2023-07-31T01:54:33;3.50;;;3.20;;
2522;SDS011;1272;53.332;9.860;2023-07-31T01:56:59;3.67;;;1.80;;
2522;SDS011;1272;53.332;9.860;2023-07-31T01:59:25;2.10;;;1.87;;
2522;SDS011;1272;53.332;9.860;2023-07-31T02:01:50;1.87;;;1.77;;
2522;SDS011;1272;53.332;9.860;2023-07-31T02:04:16;3.43;;;1.83;;
2522;SDS011;1272;53.332;9.860;2023-07-31T02:06:43;6.80;;;1.90;;
2522;SDS011;1272;53.332;9.860;2023-07-31T02:09:09;3.27;;;2.43;;
2522;SDS011;1272;53.332;9.860;2023-07-31T02:11:34;1.90;;;1.80;;
2522;SDS011;1272;53.332;9.860;2023-07-31T02:14:00;3.47;;;2.63;;
2522;SDS011;1272;53.332;9.860;2023-07-31T02:16:26;2.20;;;1.73;;
2522;SDS011;1272;53.332;9.860;2023-07-31T02:18:51;2.90;;;2.37;;
2522;SDS011;1272;53.332;9.860;2023-07-31T02:21:17;1.90;;;1.80;;
2522;SDS011;1272;53.332;9.860;2023-07-31T02:23:43;2.80;;;2.20;;
2522;SDS011;1272;53.332;9.860;2023-07-31T02:26:08;2.77;;;1.53;;
2522;SDS011;1272;53.332;9.860;2023-07-31T02:28:34;2.10;;;1.73;;
2522;SDS011;1272;53.332;9.860;2023-07-31T02:31:00;1.73;;;1.63;;
2522;SDS011;1272;53.332;9.860;2023-07-31T02:33:25;2.13;;;1.93;;
2522;SDS011;1272;53.332;9.860;2023-07-31T02:35:51;2.47;;;2.37;;
2522;SDS011;1272;53.332;9.860;2023-07-31T02:38:17;2.27;;;2.07;;
2522;SDS011;1272;53.332;9.860;2023-07-31T02:40:43;5.80;;;2.53;;
2522;SDS011;1272;53.332;9.860;2023-07-31T02:43:09;3.07;;;2.30;;
2522;SDS011;1272;53.332;9.860;2023-07-31T02:45:35;1.80;;;1.70;;
2522;SDS011;1272;53.332;9.860;2023-07-31T02:48:00;2.20;;;2.10;;
2522;SDS011;1272;53.332;9.860;2023-07-31T02:50:26;2.20;;;2.00;;
2522;SDS011;1272;53.332;9.860;2023-07-31T02:52:53;1.87;;;1.77;;
2522;SDS011;1272;53.332;9.860;2023-07-31T02:55:19;3.60;;;2.30;;
2522;SDS011;1272;53.332;9.860;2023-07-31T02:57:45;1.87;;;1.73;;
2522;SDS011;1272;53.332;9.860;2023-07-31T03:00:10;2.30;;;2.10;;
2522;SDS011;1272;53.332;9.860;2023-07-31T03:02:36;2.40;;;2.20;;
2522;SDS011;1272;53.332;9.860;2023-07-31T03:05:02;3.83;;;2.20;;
2522;SDS011;1272;53.332;9.860;2023-07-31T03:07:28;2.30;;;2.00;;
2522;SDS011;1272;53.332;9.860;2023-07-31T03:09:55;1.73;;;1.63;;
2522;SDS011;1272;53.332;9.860;2023-07-31T03:12:21;2.53;;;2.33;;
2522;SDS011;1272;53.332;9.860;2023-07-31T03:14:47;4.07;;;2.23;;
2522;SDS011;1272;53.332;9.860;2023-07-31T03:17:13;2.50;;;2.30;;
2522;SDS011;1272;53.332;9.860;2023-07-31T03:19:38;3.27;;;2.20;;
2522;SDS011;1272;53.332;9.860;2023-07-31T03:22:04;2.93;;;2.37;;
2522;SDS011;1272;53.332;9.860;2023-07-31T03:24:30;3.60;;;3.40;;
2522;SDS011;1272;53.332;9.860;2023-07-31T03:26:56;3.30;;;3.00;;
2522;SDS011;1272;53.332;9.860;2023-07-31T03:29:21;3.57;;;3.30;;
2522;SDS011;1272;53.332;9.860;2023-07-31T03:31:47;3.40;;;3.20;;
2522;SDS011;1272;53.332;9.860;2023-07-31T03:34:13;3.87;;;3.57;;
2522;SDS011;1272;53.332;9.860;2023-07-31T03:36:38;3.60;;;3.40;;
2522;SDS011;1272;53.332;9.860;2023-07-31T03:39:04;3.60;;;3.37;;
2522;SDS011;1272;53.332;9.860;2023-07-31T03:41:30;3.93;;;3.40;;
2522;SDS011;1272;53.332;9.860;2023-07-31T03:43:55;4.00;;;3.70;;
2522;SDS011;1272;53.332;9.860;2023-07-31T03:46:22;4.70;;;4.30;;
2522;SDS011;1272;53.332;9.860;2023-07-31T03:48:48;3.87;;;3.57;;
2522;SDS011;1272;53.332;9.860;2023-07-31T03:51:14;4.40;;;4.00;;
2522;SDS011;1272;53.332;9.860;2023-07-31T03:53:39;3.90;;;3.60;;
2522;SDS011;1272;53.332;9.860;2023-07-31T03:56:05;4.47;;;4.07;;
2522;SDS011;1272;53.332;9.860;2023-07-31T03:58:31;4.20;;;3.70;;
2522;SDS011;1272;53.332;9.860;2023-07-31T04:00:56;4.10;;;3.80;;
2522;SDS011;1272;53.332;9.860;2023-07-31T04:03:22;3.60;;;3.27;;
2522;SDS011;1272;53.332;9.860;2023-07-31T04:05:48;4.03;;;3.73;;
2522;SDS011;1272;53.332;9.860;2023-07-31T04:08:13;2.60;;;2.50;;
2522;SDS011;1272;53.332;9.860;2023-07-31T04:10:39;4.07;;;3.77;;
2522;SDS011;1272;53.332;9.860;2023-07-31T04:13:05;3.53;;;3.23;;
2522;SDS011;1272;53.332;9.860;2023-07-31T04:15:30;4.00;;;3.70;;
2522;SDS011;1272;53.332;9.860;2023-07-31T04:17:56;5.30;;;4.43;;
2522;SDS011;1272;53.332;9.860;2023-07-31T04:20:22;3.60;;;3.40;;
2522;SDS011;1272;53.332;9.860;2023-07-31T04:22:48;4.57;;;3.97;;
2522;SDS011;1272;53.332;9.860;2023-07-31T04:25:14;3.67;;;3.47;;
2522;SDS011;1272;53.332;9.860;2023-07-31T04:27:40;4.10;;;3.80;;
2522;SDS011;1272;53.332;9.860;2023-07-31T04:30:05;3.23;;;3.03;;
2522;SDS011;1272;53.332;9.860;2023-07-31T04:32:31;7.50;;;4.10;;
2522;SDS011;1272;53.332;9.860;2023-07-31T04:34:57;4.23;;;4.03;;
2522;SDS011;1272;53.332;9.860;2023-07-31T04:37:23;4.13;;;3.83;;
2522;SDS011;1272;53.332;9.860;2023-07-31T04:39:49;4.30;;;3.87;;
2522;SDS011;1272;53.332;9.860;2023-07-31T04:42:14;4.10;;;3.70;;
2522;SDS011;1272;53.332;9.860;2023-07-31T04:44:40;4.17;;;3.90;;
2522;SDS011;1272;53.332;9.860;2023-07-31T04:47:05;3.53;;;3.33;;
2522;SDS011;1272;53.332;9.860;2023-07-31T04:49:32;3.40;;;3.20;;
2522;SDS011;1272;53.332;9.860;2023-07-31T04:51:58;5.10;;;4.60;;
2522;SDS011;1272;53.332;9.860;2023-07-31T04:54:23;4.20;;;3.90;;
2522;SDS011;1272;53.332;9.860;2023-07-31T04:56:49;3.70;;;3.50;;
2522;SDS011;1272;53.332;9.860;2023-07-31T04:59:15;4.63;;;4.20;;
2522;SDS011;1272;53.332;9.860;2023-07-31T05:01:40;3.70;;;3.43;;
2522;SDS011;1272;53.332;9.860;2023-07-31T05:04:06;3.00;;;2.80;;
2522;SDS011;1272;53.332;9.860;2023-07-31T05:06:32;4.20;;;3.90;;
2522;SDS011;1272;53.332;9.860;2023-07-31T05:08:58;3.83;;;3.30;;
2522;SDS011;1272;53.332;9.860;2023-07-31T05:11:23;3.53;;;3.33;;
2522;SDS011;1272;53.332;9.860;2023-07-31T05:13:49;3.97;;;3.60;;
2522;SDS011;1272;53.332;9.860;2023-07-31T05:16:15;3.93;;;3.73;;
2522;SDS011;1272;53.332;9.860;2023-07-31T05:18:40;4.13;;;3.73;;
2522;SDS011;1272;53.332;9.860;2023-07-31T05:21:06;3.30;;;3.10;;
2522;SDS011;1272;53.332;9.860;2023-07-31T05:23:32;3.70;;;3.40;;
2522;SDS011;1272;53.332;9.860;2023-07-31T05:26:07;4.10;;;3.80;;
2522;SDS011;1272;53.332;9.860;2023-07-31T05:28:35;4.00;;;3.70;;
2522;SDS011;1272;53.332;9.860;2023-07-31T05:31:02;4.40;;;4.00;;
2522;SDS011;1272;53.332;9.860;2023-07-31T05:33:28;3.70;;;3.40;;
2522;SDS011;1272;53.332;9.860;2023-07-31T05:35:54;3.00;;;2.80;;
2522;SDS011;1272;53.332;9.860;2023-07-31T05:38:19;3.13;;;2.93;;
2522;SDS011;1272;53.332;9.860;2023-07-31T05:40:45;2.57;;;2.47;;
2522;SDS011;1272;53.332;9.860;2023-07-31T05:43:11;3.80;;;3.60;;
2522;SDS011;1272;53.332;9.860;2023-07-31T05:45:37;3.50;;;3.30;;
2522;SDS011;1272;53.332;9.860;2023-07-31T05:48:03;4.40;;;4.00;;
2522;SDS011;1272;53.332;9.860;2023-07-31T05:50:29;3.97;;;3.77;;
2522;SDS011;1272;53.332;9.860;2023-07-31T05:52:55;4.10;;;3.80;;
2522;SDS011;1272;53.332;9.860;2023-07-31T05:55:24;3.60;;;3.30;;
2522;SDS011;1272;53.332;9.860;2023-07-31T05:57:52;3.30;;;3.00;;
2522;SDS011;1272;53.332;9.860;2023-07-31T06:00:18;2.67;;;2.57;;
2522;SDS011;1272;53.332;9.860;2023-07-31T06:02:44;3.53;;;3.23;;
2522;SDS011;1272;53.332;9.860;2023-07-31T06:05:09;2.10;;;2.00;;
2522;SDS011;1272;53.332;9.860;2023-07-31T06:07:35;3.00;;;2.80;;
2522;SDS011;1272;53.332;9.860;2023-07-31T06:10:01;2.30;;;2.20;;
2522;SDS011;1272;53.332;9.860;2023-07-31T06:12:31;2.13;;;2.03;;
2522;SDS011;1272;53.332;9.860;2023-07-31T06:14:57;2.00;;;1.90;;
2522;SDS011;1272;53.332;9.860;2023-07-31T06:17:23;2.67;;;2.57;;
2522;SDS011;1272;53.332;9.860;2023-07-31T06:19:49;2.17;;;2.07;;
2522;SDS011;1272;53.332;9.860;2023-07-31T06:22:15;2.67;;;2.57;;
2522;SDS011;1272;53.332;9.860;2023-07-31T06:24:40;2.60;;;2.50;;
2522;SDS011;1272;53.332;9.860;2023-07-31T06:27:06;2.90;;;2.67;;
2522;SDS011;1272;53.332;9.860;2023-07-31T06:29:32;2.67;;;2.57;;
2522;SDS011;1272;53.332;9.860;2023-07-31T06:31:58;2.20;;;2.10;;
2522;SDS011;1272;53.332;9.860;2023-07-31T06:34:24;2.93;;;2.00;;
2522;SDS011;1272;53.332;9.860;2023-07-31T06:36:50;2.13;;;2.03;;
2522;SDS011;1272;53.332;9.860;2023-07-31T06:39:15;2.50;;;1.60;;
2522;SDS011;1272;53.332;9.860;2023-07-31T06:41:42;1.77;;;1.67;;
2522;SDS011;1272;53.332;9.860;2023-07-31T06:44:09;1.90;;;1.80;;
2522;SDS011;1272;53.332;9.860;2023-07-31T06:46:35;1.93;;;1.83;;
2522;SDS011;1272;53.332;9.860;2023-07-31T06:49:00;1.80;;;1.70;;
2522;SDS011;1272;53.332;9.860;2023-07-31T06:51:26;1.93;;;1.83;;
2522;SDS011;1272;53.332;9.860;2023-07-31T06:53:52;1.60;;;1.50;;
2522;SDS011;1272;53.332;9.860;2023-07-31T06:56:17;1.70;;;1.60;;
2522;SDS011;1272;53.332;9.860;2023-07-31T06:58:43;1.70;;;1.60;;
2522;SDS011;1272;53.332;9.860;2023-07-31T07:01:09;1.53;;;1.43;;
2522;SDS011;1272;53.332;9.860;2023-07-31T07:03:34;1.90;;;1.80;;
2522;SDS011;1272;53.332;9.860;2023-07-31T07:06:00;1.90;;;1.80;;
2522;SDS011;1272;53.332;9.860;2023-07-31T07:08:26;1.87;;;1.77;;
2522;SDS011;1272;53.332;9.860;2023-07-31T07:10:51;1.17;;;1.17;;
2522;SDS011;1272;53.332;9.860;2023-07-31T07:13:17;1.60;;;1.60;;
2522;SDS011;1272;53.332;9.860;2023-07-31T07:15:43;1.40;;;1.23;;
2522;SDS011;1272;53.332;9.860;2023-07-31T07:18:18;6.03;;;1.70;;
2522;SDS011;1272;53.332;9.860;2023-07-31T07:20:50;1.23;;;1.23;;
2522;SDS011;1272;53.332;9.860;2023-07-31T07:23:17;1.23;;;1.23;;
2522;SDS011;1272;53.332;9.860;2023-07-31T07:25:43;1.40;;;1.30;;
2522;SDS011;1272;53.332;9.860;2023-07-31T07:28:10;0.97;;;0.97;;
2522;SDS011;1272;53.332;9.860;2023-07-31T07:30:36;1.53;;;1.43;;
2522;SDS011;1272;53.332;9.860;2023-07-31T07:33:01;1.50;;;1.40;;
2522;SDS011;1272;53.332;9.860;2023-07-31T07:35:27;1.33;;;1.23;;
2522;SDS011;1272;53.332;9.860;2023-07-31T07:37:53;1.00;;;1.00;;
2522;SDS011;1272;53.332;9.860;2023-07-31T07:40:20;0.90;;;0.90;;
2522;SDS011;1272;53.332;9.860;2023-07-31T07:42:45;1.07;;;1.07;;
2522;SDS011;1272;53.332;9.860;2023-07-31T07:45:11;0.90;;;0.90;;
2522;SDS011;1272;53.332;9.860;2023-07-31T07:47:38;1.13;;;1.13;;
2522;SDS011;1272;53.332;9.860;2023-07-31T07:50:07;1.00;;;1.00;;
2522;SDS011;1272;53.332;9.860;2023-07-31T07:52:33;0.93;;;0.93;;
2522;SDS011;1272;53.332;9.860;2023-07-31T07:54:59;0.83;;;0.83;;
2522;SDS011;1272;53.332;9.860;2023-07-31T07:57:25;0.97;;;0.97;;
2522;SDS011;1272;53.332;9.860;2023-07-31T07:59:51;0.70;;;0.70;;
2522;SDS011;1272;53.332;9.860;2023-07-31T08:02:17;1.63;;;0.83;;
2522;SDS011;1272;53.332;9.860;2023-07-31T08:04:43;0.60;;;0.60;;
2522;SDS011;1272;53.332;9.860;2023-07-31T08:07:10;1.13;;;0.87;;
2522;SDS011;1272;53.332;9.860;2023-07-31T08:09:39;0.70;;;0.70;;
2522;SDS011;1272;53.332;9.860;2023-07-31T08:12:05;0.70;;;0.70;;
2522;SDS011;1272;53.332;9.860;2023-07-31T08:14:31;0.77;;;0.77;;
2522;SDS011;1272;53.332;9.860;2023-07-31T08:16:57;0.77;;;0.77;;
2522;SDS011;1272;53.332;9.860;2023-07-31T08:19:23;0.53;;;0.53;;
2522;SDS011;1272;53.332;9.860;2023-07-31T08:21:49;0.63;;;0.63;;
2522;SDS011;1272;53.332;9.860;2023-07-31T08:24:15;0.60;;;0.60;;
2522;SDS011;1272;53.332;9.860;2023-07-31T08:26:40;0.50;;;0.50;;
2522;SDS011;1272;53.332;9.860;2023-07-31T08:29:07;0.70;;;0.70;;
2522;SDS011;1272;53.332;9.860;2023-07-31T08:31:33;0.50;;;0.50;;
2522;SDS011;1272;53.332;9.860;2023-07-31T08:33:59;0.50;;;0.50;;
2522;SDS011;1272;53.332;9.860;2023-07-31T08:36:25;0.50;;;0.50;;
2522;SDS011;1272;53.332;9.860;2023-07-31T08:38:51;0.50;;;0.50;;
2522;SDS011;1272;53.332;9.860;2023-07-31T08:41:16;0.50;;;0.50;;
2522;SDS011;1272;53.332;9.860;2023-07-31T08:43:42;0.50;;;0.50;;
2522;SDS011;1272;53.332;9.860;2023-07-31T08:46:12;0.63;;;0.60;;
2522;SDS011;1272;53.332;9.860;2023-07-31T08:48:40;0.50;;;0.50;;
2522;SDS011;1272;53.332;9.860;2023-07-31T08:51:10;0.40;;;0.40;;
2522;SDS011;1272;53.332;9.860;2023-07-31T08:53:36;0.50;;;0.50;;
2522;SDS011;1272;53.332;9.860;2023-07-31T08:56:01;0.97;;;0.60;;
2522;SDS011;1272;53.332;9.860;2023-07-31T08:58:30;0.50;;;0.50;;
2522;SDS011;1272;53.332;9.860;2023-07-31T09:00:57;0.50;;;0.50;;
2522;SDS011;1272;53.332;9.860;2023-07-31T09:03:25;0.50;;;0.50;;
2522;SDS011;1272;53.332;9.860;2023-07-31T09:05:51;0.50;;;0.50;;
2522;SDS011;1272;53.332;9.860;2023-07-31T09:08:20;0.83;;;0.60;;
2522;SDS011;1272;53.332;9.860;2023-07-31T09:10:47;0.60;;;0.60;;
2522;SDS011;1272;53.332;9.860;2023-07-31T09:13:15;0.83;;;0.83;;
2522;SDS011;1272;53.332;9.860;2023-07-31T09:15:42;1.40;;;1.30;;
2522;SDS011;1272;53.332;9.860;2023-07-31T09:18:10;1.83;;;1.60;;
2522;SDS011;1272;53.332;9.860;2023-07-31T09:20:36;1.47;;;1.37;;
2522;SDS011;1272;53.332;9.860;2023-07-31T09:23:10;2.57;;;2.37;;
2522;SDS011;1272;53.332;9.860;2023-07-31T09:25:37;3.50;;;2.63;;
2522;SDS011;1272;53.332;9.860;2023-07-31T09:28:07;3.20;;;2.73;;
2522;SDS011;1272;53.332;9.860;2023-07-31T09:33:28;3.70;;;2.93;;
2522;SDS011;1272;53.332;9.860;2023-07-31T09:35:56;6.27;;;3.57;;
2522;SDS011;1272;53.332;9.860;2023-07-31T09:38:24;5.07;;;4.10;;
2522;SDS011;1272;53.332;9.860;2023-07-31T09:40:50;5.90;;;4.10;;
2522;SDS011;1272;53.332;9.860;2023-07-31T09:43:19;6.20;;;4.80;;
2522;SDS011;1272;53.332;9.860;2023-07-31T09:45:46;9.00;;;5.70;;
2522;SDS011;1272;53.332;9.860;2023-07-31T09:48:13;7.57;;;4.90;;
2522;SDS011;1272;53.332;9.860;2023-07-31T09:50:44;6.93;;;5.60;;
2522;SDS011;1272;53.332;9.860;2023-07-31T09:53:11;7.57;;;5.20;;
2522;SDS011;1272;53.332;9.860;2023-07-31T09:55:37;9.13;;;4.60;;
2522;SDS011;1272;53.332;9.860;2023-07-31T09:58:04;7.47;;;5.13;;
2522;SDS011;1272;53.332;9.860;2023-07-31T10:00:31;6.77;;;6.07;;
2522;SDS011;1272;53.332;9.860;2023-07-31T10:03:01;9.03;;;6.30;;
2522;SDS011;1272;53.332;9.860;2023-07-31T10:05:36;7.00;;;5.63;;
2522;SDS011;1272;53.332;9.860;2023-07-31T10:08:02;10.97;;;5.67;;
2522;SDS011;1272;53.332;9.860;2023-07-31T10:10:28;6.60;;;5.90;;
2522;SDS011;1272;53.332;9.860;2023-07-31T10:12:55;8.10;;;5.30;;
2522;SDS011;1272;53.332;9.860;2023-07-31T10:15:22;8.60;;;5.13;;
2522;SDS011;1272;53.332;9.860;2023-07-31T10:17:49;9.20;;;6.77;;
2522;SDS011;1272;53.332;9.860;2023-07-31T10:20:16;8.60;;;6.80;;
2522;SDS011;1272;53.332;9.860;2023-07-31T10:22:42;10.00;;;6.70;;
2522;SDS011;1272;53.332;9.860;2023-07-31T10:25:09;10.10;;;5.80;;
2522;SDS011;1272;53.332;9.860;2023-07-31T10:27:35;13.13;;;6.37;;
2522;SDS011;1272;53.332;9.860;2023-07-31T10:30:03;6.80;;;5.83;;
2522;SDS011;1272;53.332;9.860;2023-07-31T10:32:30;10.70;;;5.93;;
2522;SDS011;1272;53.332;9.860;2023-07-31T10:34:56;9.13;;;6.00;;
2522;SDS011;1272;53.332;9.860;2023-07-31T10:37:24;8.60;;;6.70;;
2522;SDS011;1272;53.332;9.860;2023-07-31T10:39:58;8.40;;;5.63;;
2522;SDS011;1272;53.332;9.860;2023-07-31T10:45:10;5.73;;;4.60;;
2522;SDS011;1272;53.332;9.860;2023-07-31T10:47:42;6.70;;;4.40;;
2522;SDS011;1272;53.332;9.860;2023-07-31T10:50:16;5.30;;;4.90;;
2522;SDS011;1272;53.332;9.860;2023-07-31T10:52:45;7.07;;;5.00;;
2522;SDS011;1272;53.332;9.860;2023-07-31T10:55:23;5.17;;;4.37;;
2522;SDS011;1272;53.332;9.860;2023-07-31T10:57:53;4.73;;;4.30;;
2522;SDS011;1272;53.332;9.860;2023-07-31T11:00:20;5.63;;;4.40;;
2522;SDS011;1272;53.332;9.860;2023-07-31T11:03:00;5.40;;;3.43;;
2522;SDS011;1272;53.332;9.860;2023-07-31T11:06:00;4.13;;;3.73;;
2522;SDS011;1272;53.332;9.860;2023-07-31T11:08:30;3.40;;;3.10;;
2522;SDS011;1272;53.332;9.860;2023-07-31T11:13:40;3.67;;;3.33;;
2522;SDS011;1272;53.332;9.860;2023-07-31T11:16:07;3.80;;;3.50;;
2522;SDS011;1272;53.332;9.860;2023-07-31T11:18:33;2.90;;;2.67;;
2522;SDS011;1272;53.332;9.860;2023-07-31T11:20:59;3.80;;;3.40;;
2522;SDS011;1272;53.332;9.860;2023-07-31T11:23:25;3.57;;;2.70;;
2522;SDS011;1272;53.332;9.860;2023-07-31T11:25:51;2.83;;;2.63;;
2522;SDS011;1272;53.332;9.860;2023-07-31T11:28:17;4.10;;;2.63;;
2522;SDS011;1272;53.332;9.860;2023-07-31T11:30:44;2.40;;;2.20;;
2522;SDS011;1272;53.332;9.860;2023-07-31T11:33:11;2.70;;;2.50;;
2522;SDS011;1272;53.332;9.860;2023-07-31T11:35:45;2.73;;;2.33;;
2522;SDS011;1272;53.332;9.860;2023-07-31T11:38:20;2.20;;;2.00;;
2522;SDS011;1272;53.332;9.860;2023-07-31T11:40:48;2.43;;;2.23;;
2522;SDS011;1272;53.332;9.860;2023-07-31T11:43:13;3.33;;;2.07;;
2522;SDS011;1272;53.332;9.860;2023-07-31T11:45:44;1.97;;;1.77;;
2522;SDS011;1272;53.332;9.860;2023-07-31T11:48:18;2.00;;;1.90;;
2522;SDS011;1272;53.332;9.860;2023-07-31T11:51:03;1.57;;;1.47;;
2522;SDS011;1272;53.332;9.860;2023-07-31T11:53:35;1.47;;;1.37;;
2522;SDS011;1272;53.332;9.860;2023-07-31T11:56:07;2.07;;;1.70;;
2522;SDS011;1272;53.332;9.860;2023-07-31T11:58:36;1.70;;;1.60;;
2522;SDS011;1272;53.332;9.860;2023-07-31T12:01:03;1.70;;;1.60;;
2522;SDS011;1272;53.332;9.860;2023-07-31T12:03:30;2.40;;;1.80;;
2522;SDS011;1272;53.332;9.860;2023-07-31T12:05:57;1.53;;;1.47;;
2522;SDS011;1272;53.332;9.860;2023-07-31T12:08:24;1.83;;;1.70;;
2522;SDS011;1272;53.332;9.860;2023-07-31T12:10:51;1.47;;;1.37;;
2522;SDS011;1272;53.332;9.860;2023-07-31T12:13:21;1.40;;;1.30;;
2522;SDS011;1272;53.332;9.860;2023-07-31T12:15:55;2.00;;;1.90;;
2522;SDS011;1272;53.332;9.860;2023-07-31T12:18:22;3.50;;;2.10;;
2522;SDS011;1272;53.332;9.860;2023-07-31T12:20:53;2.20;;;1.27;;
2522;SDS011;1272;53.332;9.860;2023-07-31T12:23:21;1.80;;;1.70;;
2522;SDS011;1272;53.332;9.860;2023-07-31T12:28:34;1.20;;;1.20;;
2522;SDS011;1272;53.332;9.860;2023-07-31T12:31:05;1.40;;;1.40;;
2522;SDS011;1272;53.332;9.860;2023-07-31T12:33:34;1.00;;;1.00;;
2522;SDS011;1272;53.332;9.860;2023-07-31T12:36:02;1.00;;;1.00;;
2522;SDS011;1272;53.332;9.860;2023-07-31T12:38:29;1.10;;;1.10;;
2522;SDS011;1272;53.332;9.860;2023-07-31T12:40:55;1.60;;;1.50;;
2522;SDS011;1272;53.332;9.860;2023-07-31T12:43:21;1.80;;;1.70;;
2522;SDS011;1272;53.332;9.860;2023-07-31T12:45:47;1.10;;;1.10;;
2522;SDS011;1272;53.332;9.860;2023-07-31T12:48:13;1.20;;;1.20;;
2522;SDS011;1272;53.332;9.860;2023-07-31T12:50:39;1.50;;;1.50;;
2522;SDS011;1272;53.332;9.860;2023-07-31T12:53:04;1.10;;;1.10;;
2522;SDS011;1272;53.332;9.860;2023-07-31T12:55:30;1.20;;;1.20;;
2522;SDS011;1272;53.332;9.860;2023-07-31T12:57:59;1.10;;;1.10;;
2522;SDS011;1272;53.332;9.860;2023-07-31T13:00:25;1.03;;;1.03;;
2522;SDS011;1272;53.332;9.860;2023-07-31T13:02:51;1.00;;;1.00;;
2522;SDS011;1272;53.332;9.860;2023-07-31T13:05:17;1.20;;;1.20;;
2522;SDS011;1272;53.332;9.860;2023-07-31T13:07:45;1.10;;;1.10;;
2522;SDS011;1272;53.332;9.860;2023-07-31T13:10:11;1.20;;;1.20;;
2522;SDS011;1272;53.332;9.860;2023-07-31T13:12:36;1.30;;;1.20;;
2522;SDS011;1272;53.332;9.860;2023-07-31T13:15:03;0.87;;;0.87;;
2522;SDS011;1272;53.332;9.860;2023-07-31T13:17:30;1.40;;;1.30;;
2522;SDS011;1272;53.332;9.860;2023-07-31T13:19:56;1.10;;;1.10;;
2522;SDS011;1272;53.332;9.860;2023-07-31T13:22:21;0.70;;;0.70;;
2522;SDS011;1272;53.332;9.860;2023-07-31T13:24:47;1.20;;;1.20;;
2522;SDS011;1272;53.332;9.860;2023-07-31T13:27:13;0.83;;;0.83;;
2522;SDS011;1272;53.332;9.860;2023-07-31T13:29:43;1.33;;;0.73;;
2522;SDS011;1272;53.332;9.860;2023-07-31T13:32:09;1.00;;;1.00;;
2522;SDS011;1272;53.332;9.860;2023-07-31T13:34:35;1.43;;;1.33;;
2522;SDS011;1272;53.332;9.860;2023-07-31T13:37:00;0.80;;;0.80;;
2522;SDS011;1272;53.332;9.860;2023-07-31T13:39:26;0.80;;;0.80;;
2522;SDS011;1272;53.332;9.860;2023-07-31T13:41:52;0.80;;;0.80;;
2522;SDS011;1272;53.332;9.860;2023-07-31T13:44:17;0.97;;;0.97;;
2522;SDS011;1272;53.332;9.860;2023-07-31T13:46:43;1.10;;;1.10;;
2522;SDS011;1272;53.332;9.860;2023-07-31T13:49:09;0.90;;;0.90;;
2522;SDS011;1272;53.332;9.860;2023-07-31T13:51:34;1.50;;;1.43;;
2522;SDS011;1272;53.332;9.860;2023-07-31T13:54:01;1.07;;;1.07;;
2522;SDS011;1272;53.332;9.860;2023-07-31T13:56:26;1.00;;;1.00;;
2522;SDS011;1272;53.332;9.860;2023-07-31T13:58:52;1.40;;;1.40;;
2522;SDS011;1272;53.332;9.860;2023-07-31T14:01:18;1.10;;;1.10;;
2522;SDS011;1272;53.332;9.860;2023-07-31T14:03:43;1.43;;;1.43;;
2522;SDS011;1272;53.332;9.860;2023-07-31T14:06:09;1.30;;;1.30;;
2522;SDS011;1272;53.332;9.860;2023-07-31T14:08:35;1.57;;;1.47;;
2522;SDS011;1272;53.332;9.860;2023-07-31T14:11:01;1.40;;;1.40;;
2522;SDS011;1272;53.332;9.860;2023-07-31T14:13:26;1.87;;;1.77;;
2522;SDS011;1272;53.332;9.860;2023-07-31T14:15:52;1.70;;;1.70;;
2522;SDS011;1272;53.332;9.860;2023-07-31T14:18:18;1.57;;;1.53;;
2522;SDS011;1272;53.332;9.860;2023-07-31T14:20:44;1.73;;;1.63;;
2522;SDS011;1272;53.332;9.860;2023-07-31T14:23:09;2.10;;;2.00;;
2522;SDS011;1272;53.332;9.860;2023-07-31T14:25:35;2.20;;;2.10;;
2522;SDS011;1272;53.332;9.860;2023-07-31T14:28:01;2.00;;;1.90;;
2522;SDS011;1272;53.332;9.860;2023-07-31T14:30:26;2.13;;;1.93;;
2522;SDS011;1272;53.332;9.860;2023-07-31T14:32:52;2.10;;;2.00;;
2522;SDS011;1272;53.332;9.860;2023-07-31T14:35:18;2.50;;;2.40;;
2522;SDS011;1272;53.332;9.860;2023-07-31T14:37:45;2.20;;;2.10;;
2522;SDS011;1272;53.332;9.860;2023-07-31T14:40:11;2.73;;;2.53;;
2522;SDS011;1272;53.332;9.860;2023-07-31T14:42:38;2.80;;;2.60;;
2522;SDS011;1272;53.332;9.860;2023-07-31T14:45:05;2.57;;;2.47;;
2522;SDS011;1272;53.332;9.860;2023-07-31T14:47:32;2.40;;;2.30;;
2522;SDS011;1272;53.332;9.860;2023-07-31T14:49:58;3.00;;;2.80;;
2522;SDS011;1272;53.332;9.860;2023-07-31T14:52:24;3.40;;;3.20;;
2522;SDS011;1272;53.332;9.860;2023-07-31T14:54:50;3.10;;;2.90;;
2522;SDS011;1272;53.332;9.860;2023-07-31T14:57:16;2.90;;;2.70;;
2522;SDS011;1272;53.332;9.860;2023-07-31T14:59:41;2.83;;;2.63;;
2522;SDS011;1272;53.332;9.860;2023-07-31T15:02:08;3.33;;;3.13;;
2522;SDS011;1272;53.332;9.860;2023-07-31T15:04:34;3.00;;;2.90;;
2522;SDS011;1272;53.332;9.860;2023-07-31T15:07:00;3.00;;;2.70;;
2522;SDS011;1272;53.332;9.860;2023-07-31T15:09:26;2.87;;;2.67;;
2522;SDS011;1272;53.332;9.860;2023-07-31T15:11:52;3.27;;;3.07;;
2522;SDS011;1272;53.332;9.860;2023-07-31T15:14:19;2.70;;;2.57;;
2522;SDS011;1272;53.332;9.860;2023-07-31T15:16:45;3.27;;;2.97;;
2522;SDS011;1272;53.332;9.860;2023-07-31T15:19:11;3.70;;;3.50;;
2522;SDS011;1272;53.332;9.860;2023-07-31T15:21:37;3.70;;;3.40;;
2522;SDS011;1272;53.332;9.860;2023-07-31T15:24:03;4.03;;;3.73;;
2522;SDS011;1272;53.332;9.860;2023-07-31T15:26:29;3.53;;;3.33;;
2522;SDS011;1272;53.332;9.860;2023-07-31T15:29:01;3.70;;;3.47;;